Metar Cercanos

 

LEPA - Palma De Mallorc, Spain
Distance from station: ONO 38km
Actualización: 22/05/2018 14:01
Nearby showers, Few clouds
Nearby showers, Few clouds
 Viento del SO
Viento: SO 22 km/h
Temperatura: 20°C
Rocío: 16°C
Humedad: 78%
Barómetro: 1014 hPa
Resumen: Nearby Showers
Clouds: Few Clouds
Visibility: 10 km
Cloud details: Few Clouds 549 m
Few Clouds 762 m
2018/05/22 12:01 LEPA 221201Z 22012KT 9999 VCSH FEW018 FEW025CB 20/16 Q1014 NOSIG
LEMH - Mahon/Menorca Is, Spain
Distance from station: ENE 105km
Actualización: 22/05/2018 14:00
Parcialmente nuboso
Parcialmente nuboso
 Viento del O
Viento: O 17 km/h
Temperatura: 21°C
Rocío: 15°C
Humedad: 69%
Barómetro: 1014 hPa
Clouds: Parcialmente nuboso
Visibility: 10 km
Cloud details: Parcialmente nuboso 1067 m
2018/05/22 12:00 LEMH 221200Z 27009KT 230V310 9999 SCT035 21/15 Q1014
 
LEIB - Ibiza/Es Codola, Spain
Distance from station: OSO 165km
Actualización: 22/05/2018 14:00
Few Clouds
Few Clouds
 Viento del SO
Viento: SO 24 km/h
Temperatura: 22°C
Rocío: 17°C
Humedad: 73%
Barómetro: 1015 hPa
Clouds: Few Clouds
Visibility: 10 km
Cloud details: Few Clouds 549 m
2018/05/22 12:00 LEIB 221200Z 22013KT 180V240 9999 FEW018 22/17 Q1015 NOSIG
LEBL - Barcelona Airpor, Spain
Distance from station: NNO 225km
Actualización: 22/05/2018 14:00
Few Clouds
Few Clouds
 Viento del SE
Viento: SE 13 km/h
Temperatura: 21°C
Rocío: 15°C
Humedad: 69%
Barómetro: 1014 hPa
Clouds: Few Clouds
Visibility: 10 km
Cloud details: Few Clouds 1067 m
2018/05/22 12:00 LEBL 221200Z 14007KT 090V190 9999 FEW035 21/15 Q1014 NOSIG
 
LEVC - Valencia (civ/Mi, Spain
Distance from station: NO 188km
Actualización: 22/05/2018 14:00
Parcialmente nuboso
Parcialmente nuboso
 Viento del E
Viento: E 20 km/h
Temperatura: 27°C
Rocío: 9°C
Humedad: 32%
Barómetro: 1013 hPa
Clouds: Parcialmente nuboso
Visibility: 10 km
Cloud details: Parcialmente nuboso 914 m
2018/05/22 12:00 LEVC 221200Z 08011KT 040V110 9999 SCT030 27/09 Q1013 TEMPO FEW030CB
LEGE - Gerona/Costa Bra, Spain
Distance from station: N 276km
Actualización: 22/05/2018 14:00
Parcialmente nuboso
Parcialmente nuboso
 Viento del SSE
Viento: SSE 17 km/h
Temperatura: 23°C
Rocío: 14°C
Humedad: 57%
Barómetro: 1013 hPa
Clouds: Parcialmente nuboso
Visibility: 10 km
Cloud details: Few Clouds 914 m
Parcialmente nuboso 1524 m
2018/05/22 12:00 LEGE 221200Z 16009KT 120V210 9999 FEW030TCU SCT050 23/14 Q1013
 
LEAL - Alicante/El Alte, Spain
Distance from station: OSO 344km
Actualización: 22/05/2018 14:00
Few Clouds
Few Clouds
 Viento del S
Viento: S 15 km/h
Temperatura: 26°C
Rocío: 14°C
Humedad: 48%
Barómetro: 1013 hPa
Clouds: Few Clouds
Visibility: 10 km
Cloud details: Few Clouds 1372 m
2018/05/22 12:00 LEAL 221200Z 18008KT 120V240 9999 FEW045 26/14 Q1013 NOSIG
LEAM - Almeria Airport, Spain
Distance from station: SSO 56km
Actualización: 22/05/2018 14:00
Few Clouds
Few Clouds
 Viento del SSO
Viento: SSO 17 km/h
Temperatura: 21°C
Rocío: 16°C
Humedad: 73%
Barómetro: 1015 hPa
Clouds: Few Clouds
Visibility: 10 km
Cloud details: Few Clouds 914 m
2018/05/22 12:00 LEAM 221200Z 20009KT 170V240 9999 FEW030 21/16 Q1015
 
LEZG - Zaragoza (mil/Ci, Spain
Distance from station: NO 431km
Actualización: 22/05/2018 14:00
Few Clouds
Few Clouds
 Viento del ONO
Viento: ONO 11 km/h
Temperatura: 24°C
Rocío: 11°C
Humedad: 44%
Barómetro: 1014 hPa
Clouds: Few Clouds
Visibility: 10 km
Cloud details: Few Clouds 1219 m
2018/05/22 12:00 LEZG 221200Z 30006KT 250V010 9999 FEW040 24/11 Q1014
LEMD - Madrid/Barajas, Spain
Distance from station: ONO 234km
Actualización: 22/05/2018 14:00
Few Clouds
Few Clouds
 Viento del SSO
Viento: SSO 6 km/h
Temperatura: 23°C
Rocío: 13°C
Humedad: 53%
Barómetro: 1015 hPa
Clouds: Few Clouds
Visibility: 10 km
Cloud details: Few Clouds 1067 m
2018/05/22 12:00 LEMD 221200Z 21003KT 9999 FEW035 23/13 Q1015 NOSIG
 
LEGR - Granada Airport, Spain
Distance from station: OSO 62km
Actualización: 22/05/2018 14:00
Few Clouds
Few Clouds
 Viento del NNO
Viento: NNO 7 km/h
Temperatura: 23°C
Rocío: 8°C
Humedad: 38%
Barómetro: 1015 hPa
Clouds: Few Clouds
Visibility: 10 km
Cloud details: Few Clouds 1219 m
Few Clouds 1524 m
2018/05/22 12:00 LEGR 221200Z 33004KT 280V020 9999 FEW040 FEW050TCU 23/08 Q1015
LEMG - Malaga (civ/Mil), Spain
Distance from station: OSO 227km
Actualización: 22/05/2018 14:00
Few Clouds
Few Clouds
 Viento del ESE
Viento: ESE 17 km/h
Temperatura: 24°C
Rocío: 12°C
Humedad: 47%
Barómetro: 1014 hPa
Clouds: Few Clouds
Visibility: 10 km
Cloud details: Few Clouds 914 m
2018/05/22 12:00 LEMG 221200Z 12009KT 090V150 9999 FEW030 24/12 Q1014 NOSIG
 
LEZL - Sevilla (civ/Mil, Spain
Distance from station: S 318km
Actualización: 22/05/2018 14:00
Few Clouds
Few Clouds
 Viento del NNO
Viento: NNO 4 km/h
Temperatura: 22°C
Rocío: 13°C
Humedad: 57%
Barómetro: 1015 hPa
Clouds: Few Clouds
Visibility: 10 km
Cloud details: Few Clouds 914 m
2018/05/22 12:00 LEZL 221200Z 33002KT 9999 FEW030 22/13 Q1015 NOSIG
LEVT - Vitoria, Spain
Distance from station: NO 226km
Actualización: 22/05/2018 14:00
Parcialmente nuboso
Parcialmente nuboso
 Viento del NNE
Viento: NNE 4 km/h
Temperatura: 20°C
Rocío: 14°C
Humedad: 69%
Barómetro: 1016 hPa
Clouds: Parcialmente nuboso
Visibility: 10 km
Cloud details: Parcialmente nuboso 1219 m
2018/05/22 12:00 LEVT 221200Z 02002KT 9999 SCT040 20/14 Q1016
 
LEBB - Bilbao/Sondica, Spain
Distance from station: NNO 235km
Actualización: 22/05/2018 14:00
Few Clouds
Few Clouds
 Viento del NO
Viento: NO 15 km/h
Temperatura: 23°C
Rocío: 12°C
Humedad: 50%
Barómetro: 1016 hPa
Clouds: Few Clouds
Visibility: 10 km
Cloud details: Few Clouds 1067 m
2018/05/22 12:00 LEBB 221200Z 32008KT 280V360 9999 FEW035 23/12 Q1016 NOSIG
LESO - San Sebastian/Fu, Spain
Distance from station: N 231km
Actualización: 22/05/2018 14:00
Despejado
Despejado
 Viento del N
Viento: N 11 km/h
Temperatura: 21°C
Rocío: 11°C
Humedad: 53%
Barómetro: 1015 hPa
Resumen: Despejado
Visibility: greater than 10 km
2018/05/22 12:00 LESO 221200Z 01006KT 320V070 CAVOK 21/11 Q1015
 
LEVD - Valladolid(Mil/C, Spain
Distance from station: ONO 239km
Actualización: 22/05/2018 14:00
Parcialmente nuboso
Parcialmente nuboso
 Viento del varies
Viento: varies 4 km/h
Temperatura: 20°C
Rocío: 11°C
Humedad: 56%
Barómetro: 1016 hPa
Clouds: Parcialmente nuboso
Visibility: 10 km
Cloud details: Parcialmente nuboso 853 m
2018/05/22 12:00 LEVD 221200Z VRB02KT 9999 SCT028TCU 20/11 Q1016
LESA - Salamanca (civ/M, Spain
Distance from station: ONO 349km
Actualización: 22/05/2018 14:00
Parcialmente nuboso
Parcialmente nuboso
 Viento del varies
Viento: varies 6 km/h
Temperatura: 21°C
Rocío: 11°C
Humedad: 53%
Barómetro: 1015 hPa
Clouds: Parcialmente nuboso
Visibility: 10 km
Cloud details: Parcialmente nuboso 1067 m
2018/05/22 12:00 LESA 221200Z VRB03KT 9999 SCT035 21/11 Q1015 WS ALL RWY
 
LEXJ - Santander/Paraya, Spain
Distance from station: NNO 247km
Actualización: 22/05/2018 14:00
Few Clouds
Few Clouds
 Viento del N
Viento: N 11 km/h
Temperatura: 21°C
Rocío: 13°C
Humedad: 60%
Barómetro: 1016 hPa
Clouds: Few Clouds
Visibility: 10 km
Cloud details: Few Clouds 1219 m
2018/05/22 12:00 LEXJ 221200Z 36006KT 320V030 9999 FEW040 21/13 Q1016
LEAS - Asturias/Aviles, Spain
Distance from station: NO 214km
Actualización: 22/05/2018 14:00
Few Clouds
Few Clouds
 Viento del ENE
Viento: ENE 7 km/h
Temperatura: 19°C
Rocío: 11°C
Humedad: 60%
Barómetro: 1016 hPa
Clouds: Few Clouds
Visibility: 10 km
Cloud details: Few Clouds 732 m
2018/05/22 12:00 LEAS 221200Z 06004KT 360V110 9999 FEW024 19/11 Q1016 NOSIG
 
LECO - La Coruna/Alvedr, Spain
Distance from station: ONO 222km
Actualización: 22/05/2018 14:00
Few Clouds
Few Clouds
 Viento del NNE
Viento: NNE 11 km/h
Temperatura: 19°C
Rocío: 13°C
Humedad: 68%
Barómetro: 1014 hPa
Clouds: Few Clouds
Visibility: 10 km
Cloud details: Few Clouds 427 m
2018/05/22 12:00 LECO 221200Z 03006KT 340V070 9999 FEW014 19/13 Q1014 NOSIG
LEVX - Vigo/Peinador, Spain
Distance from station: O 214km
Actualización: 22/05/2018 14:00
Despejado
Despejado
 Viento del OSO
Viento: OSO 15 km/h
Temperatura: 21°C
Rocío: 14°C
Humedad: 64%
Barómetro: 1014 hPa
Resumen: Despejado
Visibility: greater than 10 km
2018/05/22 12:00 LEVX 221200Z 25008KT 200V280 CAVOK 21/14 Q1014 NOSIG